sensor_id;sensor_type;location;lat;lon;timestamp;pressure;altitude;pressure_sealevel;temperature;humidity
54882;BME280;40775;51.448;4.742;2023-01-01T00:00:44;100707.59;;;15.04;100.00
54882;BME280;40775;51.448;4.742;2023-01-01T00:03:11;100705.88;;;15.08;100.00
54882;BME280;40775;51.448;4.742;2023-01-01T00:05:38;100696.16;;;15.05;100.00
54882;BME280;40775;51.448;4.742;2023-01-01T00:08:05;100688.22;;;15.05;100.00
54882;BME280;40775;51.448;4.742;2023-01-01T00:10:33;100689.97;;;15.02;100.00
54882;BME280;40775;51.448;4.742;2023-01-01T00:13:00;100696.16;;;14.99;100.00
54882;BME280;40775;51.448;4.742;2023-01-01T00:15:27;100708.50;;;15.00;100.00
54882;BME280;40775;51.448;4.742;2023-01-01T00:17:55;100703.22;;;14.97;100.00
54882;BME280;40775;51.448;4.742;2023-01-01T00:20:23;100692.63;;;14.97;100.00
54882;BME280;40775;51.448;4.742;2023-01-01T00:22:57;100690.88;;;14.96;100.00
54882;BME280;40775;51.448;4.742;2023-01-01T00:25:24;100686.47;;;15.00;100.00
54882;BME280;40775;51.448;4.742;2023-01-01T00:27:51;100703.19;;;15.00;100.00
54882;BME280;40775;51.448;4.742;2023-01-01T00:30:18;100702.31;;;15.00;100.00
54882;BME280;40775;51.448;4.742;2023-01-01T00:32:45;100723.47;;;14.94;100.00
54882;BME280;40775;51.448;4.742;2023-01-01T00:35:25;100728.75;;;14.91;100.00
54882;BME280;40775;51.448;4.742;2023-01-01T00:37:53;100724.34;;;14.90;100.00
54882;BME280;40775;51.448;4.742;2023-01-01T00:40:21;100729.66;;;14.90;100.00
54882;BME280;40775;51.448;4.742;2023-01-01T00:42:48;100712.91;;;14.89;100.00
54882;BME280;40775;51.448;4.742;2023-01-01T00:45:15;100714.66;;;14.89;100.00
54882;BME280;40775;51.448;4.742;2023-01-01T00:47:52;100723.47;;;14.94;100.00
54882;BME280;40775;51.448;4.742;2023-01-01T00:50:20;100712.03;;;14.90;100.00
54882;BME280;40775;51.448;4.742;2023-01-01T00:52:48;100703.22;;;14.94;100.00
54882;BME280;40775;51.448;4.742;2023-01-01T00:55:15;100710.25;;;14.89;100.00
54882;BME280;40775;51.448;4.742;2023-01-01T00:57:42;100727.00;;;14.90;100.00
54882;BME280;40775;51.448;4.742;2023-01-01T01:00:10;100702.34;;;14.89;100.00
54882;BME280;40775;51.448;4.742;2023-01-01T01:02:38;100693.53;;;14.89;100.00
54882;BME280;40775;51.448;4.742;2023-01-01T01:05:06;100688.22;;;14.92;100.00
54882;BME280;40775;51.448;4.742;2023-01-01T01:07:37;100706.75;;;14.90;100.00
54882;BME280;40775;51.448;4.742;2023-01-01T01:10:05;100710.25;;;14.89;100.00
54882;BME280;40775;51.448;4.742;2023-01-01T01:12:34;100710.25;;;14.92;100.00
54882;BME280;40775;51.448;4.742;2023-01-01T01:15:02;100712.03;;;14.90;100.00
54882;BME280;40775;51.448;4.742;2023-01-01T01:17:30;100711.13;;;14.94;100.00
54882;BME280;40775;51.448;4.742;2023-01-01T01:19:57;100716.44;;;14.88;100.00
54882;BME280;40775;51.448;4.742;2023-01-01T01:22:24;100719.94;;;14.90;100.00
54882;BME280;40775;51.448;4.742;2023-01-01T01:24:55;100729.66;;;14.88;100.00
54882;BME280;40775;51.448;4.742;2023-01-01T01:27:23;100720.84;;;14.89;100.00
54882;BME280;40775;51.448;4.742;2023-01-01T01:29:50;100726.13;;;14.86;100.00
54882;BME280;40775;51.448;4.742;2023-01-01T01:32:17;100727.88;;;14.86;100.00
54882;BME280;40775;51.448;4.742;2023-01-01T01:34:45;100704.09;;;14.86;100.00
54882;BME280;40775;51.448;4.742;2023-01-01T01:37:12;100703.22;;;14.88;100.00
54882;BME280;40775;51.448;4.742;2023-01-01T01:39:39;100715.56;;;14.88;100.00
54882;BME280;40775;51.448;4.742;2023-01-01T01:42:06;100717.31;;;14.86;100.00
54882;BME280;40775;51.448;4.742;2023-01-01T01:47:51;100720.84;;;14.91;100.00
54882;BME280;40775;51.448;4.742;2023-01-01T01:50:32;100731.41;;;14.89;100.00
54882;BME280;40775;51.448;4.742;2023-01-01T01:55:51;100727.00;;;14.83;100.00
54882;BME280;40775;51.448;4.742;2023-01-01T01:58:19;100735.81;;;14.84;100.00
54882;BME280;40775;51.448;4.742;2023-01-01T02:00:47;100745.50;;;14.88;100.00
54882;BME280;40775;51.448;4.742;2023-01-01T02:03:32;100743.75;;;14.84;100.00
54882;BME280;40775;51.448;4.742;2023-01-01T02:06:03;100745.50;;;14.83;100.00
54882;BME280;40775;51.448;4.742;2023-01-01T02:08:30;100745.50;;;14.82;100.00
54882;BME280;40775;51.448;4.742;2023-01-01T02:10:58;100734.06;;;14.84;100.00
54882;BME280;40775;51.448;4.742;2023-01-01T02:13:25;100729.66;;;14.82;100.00
54882;BME280;40775;51.448;4.742;2023-01-01T02:16:22;100738.47;;;14.84;99.97
54882;BME280;40775;51.448;4.742;2023-01-01T02:24:58;100741.97;;;14.89;99.66
54882;BME280;40775;51.448;4.742;2023-01-01T02:31:00;100744.63;;;14.91;100.00
54882;BME280;40775;51.448;4.742;2023-01-01T02:33:28;100753.44;;;14.90;99.28
54882;BME280;40775;51.448;4.742;2023-01-01T02:35:58;100755.19;;;14.91;99.93
54882;BME280;40775;51.448;4.742;2023-01-01T02:38:37;100758.72;;;14.90;99.51
54882;BME280;40775;51.448;4.742;2023-01-01T02:41:23;100759.59;;;14.90;100.00
54882;BME280;40775;51.448;4.742;2023-01-01T02:43:52;100771.94;;;14.91;100.00
54882;BME280;40775;51.448;4.742;2023-01-01T02:46:20;100765.78;;;14.89;99.88
54882;BME280;40775;51.448;4.742;2023-01-01T02:48:49;100755.19;;;14.91;100.00
54882;BME280;40775;51.448;4.742;2023-01-01T02:54:32;100781.63;;;14.84;100.00
54882;BME280;40775;51.448;4.742;2023-01-01T03:11:37;100782.50;;;14.85;100.00
54882;BME280;40775;51.448;4.742;2023-01-01T03:15:07;100764.00;;;14.88;100.00
54882;BME280;40775;51.448;4.742;2023-01-01T03:17:43;100779.88;;;14.83;100.00
54882;BME280;40775;51.448;4.742;2023-01-01T03:20:21;100776.34;;;14.83;100.00
54882;BME280;40775;51.448;4.742;2023-01-01T03:22:51;100780.75;;;14.89;100.00
54882;BME280;40775;51.448;4.742;2023-01-01T03:25:24;100790.44;;;14.90;100.00
54882;BME280;40775;51.448;4.742;2023-01-01T03:28:01;100793.09;;;14.88;100.00
54882;BME280;40775;51.448;4.742;2023-01-01T03:30:31;100803.66;;;14.85;100.00
54882;BME280;40775;51.448;4.742;2023-01-01T03:36:09;100813.34;;;14.84;100.00
54882;BME280;40775;51.448;4.742;2023-01-01T03:38:44;100812.47;;;14.81;100.00
54882;BME280;40775;51.448;4.742;2023-01-01T03:41:33;100817.75;;;14.84;100.00
54882;BME280;40775;51.448;4.742;2023-01-01T03:46:50;100821.25;;;14.83;100.00
54882;BME280;40775;51.448;4.742;2023-01-01T03:49:18;100829.19;;;14.81;100.00
54882;BME280;40775;51.448;4.742;2023-01-01T04:00:10;100818.63;;;14.83;100.00
54882;BME280;40775;51.448;4.742;2023-01-01T04:03:06;100833.59;;;14.89;100.00
54882;BME280;40775;51.448;4.742;2023-01-01T04:05:37;100840.66;;;14.85;100.00
54882;BME280;40775;51.448;4.742;2023-01-01T04:08:06;100853.88;;;14.87;100.00
54882;BME280;40775;51.448;4.742;2023-01-01T04:10:38;100857.41;;;14.87;100.00
54882;BME280;40775;51.448;4.742;2023-01-01T04:13:07;100854.75;;;14.86;100.00
54882;BME280;40775;51.448;4.742;2023-01-01T04:15:35;100848.56;;;14.83;100.00
54882;BME280;40775;51.448;4.742;2023-01-01T04:18:02;100853.88;;;14.83;100.00
54882;BME280;40775;51.448;4.742;2023-01-01T04:20:30;100859.16;;;14.83;100.00
54882;BME280;40775;51.448;4.742;2023-01-01T04:22:58;100852.09;;;14.81;100.00
54882;BME280;40775;51.448;4.742;2023-01-01T04:25:27;100871.47;;;14.81;100.00
54882;BME280;40775;51.448;4.742;2023-01-01T04:27:55;100881.16;;;14.79;100.00
54882;BME280;40775;51.448;4.742;2023-01-01T04:30:24;100882.06;;;14.83;100.00
54882;BME280;40775;51.448;4.742;2023-01-01T04:32:54;100890.88;;;14.83;100.00
54882;BME280;40775;51.448;4.742;2023-01-01T04:35:21;100885.59;;;14.83;100.00
54882;BME280;40775;51.448;4.742;2023-01-01T04:37:48;100883.81;;;14.82;100.00
54882;BME280;40775;51.448;4.742;2023-01-01T04:40:15;100894.41;;;14.86;100.00
54882;BME280;40775;51.448;4.742;2023-01-01T04:42:42;100900.56;;;14.83;100.00
54882;BME280;40775;51.448;4.742;2023-01-01T04:45:10;100898.78;;;14.82;100.00
54882;BME280;40775;51.448;4.742;2023-01-01T04:47:41;100916.41;;;14.80;100.00
54882;BME280;40775;51.448;4.742;2023-01-01T04:50:08;100938.44;;;14.85;100.00
54882;BME280;40775;51.448;4.742;2023-01-01T04:52:36;100932.28;;;14.83;100.00
54882;BME280;40775;51.448;4.742;2023-01-01T04:55:03;100934.03;;;14.84;100.00
54882;BME280;40775;51.448;4.742;2023-01-01T04:57:30;100934.03;;;14.84;100.00
54882;BME280;40775;51.448;4.742;2023-01-01T04:59:58;100931.34;;;14.78;100.00
54882;BME280;40775;51.448;4.742;2023-01-01T05:02:26;100941.00;;;14.67;100.00
54882;BME280;40775;51.448;4.742;2023-01-01T05:04:53;100953.31;;;14.65;100.00
54882;BME280;40775;51.448;4.742;2023-01-01T05:07:20;100964.75;;;14.61;100.00
54882;BME280;40775;51.448;4.742;2023-01-01T05:09:47;100977.88;;;14.51;100.00
54882;BME280;40775;51.448;4.742;2023-01-01T05:12:14;100979.59;;;14.43;100.00
54882;BME280;40775;51.448;4.742;2023-01-01T05:14:41;100991.84;;;14.38;100.00
54882;BME280;40775;51.448;4.742;2023-01-01T05:17:08;100998.88;;;14.36;100.00
54882;BME280;40775;51.448;4.742;2023-01-01T05:19:35;101003.28;;;14.34;100.00
54882;BME280;40775;51.448;4.742;2023-01-01T05:22:02;100999.72;;;14.31;100.00
54882;BME280;40775;51.448;4.742;2023-01-01T05:24:36;100998.84;;;14.32;100.00
54882;BME280;40775;51.448;4.742;2023-01-01T05:27:03;101009.41;;;14.29;100.00
54882;BME280;40775;51.448;4.742;2023-01-01T05:29:30;101013.81;;;14.28;100.00
54882;BME280;40775;51.448;4.742;2023-01-01T05:31:57;101012.91;;;14.26;100.00
54882;BME280;40775;51.448;4.742;2023-01-01T05:34:26;101023.34;;;14.12;100.00
54882;BME280;40775;51.448;4.742;2023-01-01T05:36:53;101011.06;;;14.20;100.00
54882;BME280;40775;51.448;4.742;2023-01-01T05:39:20;101009.22;;;14.06;100.00
54882;BME280;40775;51.448;4.742;2023-01-01T05:41:47;101043.59;;;14.13;100.00
54882;BME280;40775;51.448;4.742;2023-01-01T05:44:14;101063.81;;;14.13;100.00
54882;BME280;40775;51.448;4.742;2023-01-01T05:46:42;101063.78;;;14.07;100.00
54882;BME280;40775;51.448;4.742;2023-01-01T05:49:11;101076.03;;;14.02;100.00
54882;BME280;40775;51.448;4.742;2023-01-01T05:51:38;101066.19;;;13.85;100.00
54882;BME280;40775;51.448;4.742;2023-01-01T05:54:04;101067.06;;;13.84;100.00
54882;BME280;40775;51.448;4.742;2023-01-01T05:56:32;101066.09;;;13.76;100.00
54882;BME280;40775;51.448;4.742;2023-01-01T05:58:59;101064.19;;;13.63;100.00
54882;BME280;40775;51.448;4.742;2023-01-01T06:01:29;101060.59;;;13.58;100.00
54882;BME280;40775;51.448;4.742;2023-01-01T06:03:57;101055.25;;;13.49;100.00
54882;BME280;40775;51.448;4.742;2023-01-01T06:06:29;101059.75;;;13.59;100.00
54882;BME280;40775;51.448;4.742;2023-01-01T06:09:02;101048.34;;;13.61;100.00
54882;BME280;40775;51.448;4.742;2023-01-01T06:11:31;101063.25;;;13.58;100.00
54882;BME280;40775;51.448;4.742;2023-01-01T06:13:59;101069.44;;;13.60;100.00
54882;BME280;40775;51.448;4.742;2023-01-01T06:16:31;101070.31;;;13.62;100.00
54882;BME280;40775;51.448;4.742;2023-01-01T06:18:58;101076.53;;;13.69;100.00
54882;BME280;40775;51.448;4.742;2023-01-01T06:21:27;101070.34;;;13.65;100.00
54882;BME280;40775;51.448;4.742;2023-01-01T06:23:57;101089.69;;;13.63;100.00
54882;BME280;40775;51.448;4.742;2023-01-01T06:26:28;101102.13;;;13.71;100.00
54882;BME280;40775;51.448;4.742;2023-01-01T06:28:56;101098.41;;;13.57;100.00
54882;BME280;40775;51.448;4.742;2023-01-01T06:31:25;101113.28;;;13.52;100.00
54882;BME280;40775;51.448;4.742;2023-01-01T06:33:52;101099.19;;;13.48;100.00
54882;BME280;40775;51.448;4.742;2023-01-01T06:36:22;101102.81;;;13.56;100.00
54882;BME280;40775;51.448;4.742;2023-01-01T06:38:52;101108.94;;;13.55;100.00
54882;BME280;40775;51.448;4.742;2023-01-01T06:41:26;101107.19;;;13.56;100.00
54882;BME280;40775;51.448;4.742;2023-01-01T06:43:55;101107.22;;;13.59;100.00
54882;BME280;40775;51.448;4.742;2023-01-01T06:46:29;101115.97;;;13.55;100.00
54882;BME280;40775;51.448;4.742;2023-01-01T06:49:02;101118.53;;;13.49;100.00
54882;BME280;40775;51.448;4.742;2023-01-01T06:51:37;101104.44;;;13.45;100.00
54882;BME280;40775;51.448;4.742;2023-01-01T06:54:05;101127.19;;;13.40;100.00
54882;BME280;40775;51.448;4.742;2023-01-01T06:56:33;101139.50;;;13.40;100.00
54882;BME280;40775;51.448;4.742;2023-01-01T06:59:01;101138.63;;;13.41;100.00
54882;BME280;40775;51.448;4.742;2023-01-01T07:01:31;101138.47;;;13.28;100.00
54882;BME280;40775;51.448;4.742;2023-01-01T07:04:02;101145.56;;;13.33;100.00
54882;BME280;40775;51.448;4.742;2023-01-01T07:06:31;101148.06;;;13.22;100.00
54882;BME280;40775;51.448;4.742;2023-01-01T07:08:58;101155.97;;;13.23;100.00
54882;BME280;40775;51.448;4.742;2023-01-01T07:11:26;101164.78;;;13.24;100.00
54882;BME280;40775;51.448;4.742;2023-01-01T07:13:53;101160.38;;;13.23;100.00
54882;BME280;40775;51.448;4.742;2023-01-01T07:16:21;101163.75;;;13.16;100.00
54882;BME280;40775;51.448;4.742;2023-01-01T07:18:48;101177.00;;;13.19;100.00
54882;BME280;40775;51.448;4.742;2023-01-01T07:21:30;101179.75;;;13.26;100.00
54882;BME280;40775;51.448;4.742;2023-01-01T07:24:01;101192.69;;;13.14;100.00
54882;BME280;40775;51.448;4.742;2023-01-01T07:26:30;101195.56;;;13.25;100.00
54882;BME280;40775;51.448;4.742;2023-01-01T07:28:58;101197.16;;;13.17;100.00
54882;BME280;40775;51.448;4.742;2023-01-01T07:31:37;101196.38;;;13.21;100.00
54882;BME280;40775;51.448;4.742;2023-01-01T07:34:06;101201.47;;;13.13;100.00
54882;BME280;40775;51.448;4.742;2023-01-01T07:36:33;101218.19;;;13.14;100.00
54882;BME280;40775;51.448;4.742;2023-01-01T07:39:01;101230.63;;;13.19;100.00
54882;BME280;40775;51.448;4.742;2023-01-01T07:41:28;101233.19;;;13.16;100.00
54882;BME280;40775;51.448;4.742;2023-01-01T07:43:55;101242.75;;;13.11;100.00
54882;BME280;40775;51.448;4.742;2023-01-01T07:46:22;101249.75;;;13.11;100.00
54882;BME280;40775;51.448;4.742;2023-01-01T07:48:49;101269.06;;;13.10;100.00
54882;BME280;40775;51.448;4.742;2023-01-01T07:51:16;101272.50;;;13.04;100.00
54882;BME280;40775;51.448;4.742;2023-01-01T07:53:43;101283.97;;;13.06;100.00
54882;BME280;40775;51.448;4.742;2023-01-01T07:56:10;101280.38;;;13.03;100.00
54882;BME280;40775;51.448;4.742;2023-01-01T07:58:39;101275.97;;;13.02;100.00
54882;BME280;40775;51.448;4.742;2023-01-01T08:01:10;101288.22;;;12.98;100.00
54882;BME280;40775;51.448;4.742;2023-01-01T08:03:38;101282.06;;;12.97;100.00
54882;BME280;40775;51.448;4.742;2023-01-01T08:06:10;101281.84;;;12.87;100.00
54882;BME280;40775;51.448;4.742;2023-01-01T08:08:38;101295.97;;;12.89;100.00
54882;BME280;40775;51.448;4.742;2023-01-01T08:11:05;101288.00;;;12.87;100.00
54882;BME280;40775;51.448;4.742;2023-01-01T08:13:33;101303.00;;;12.88;100.00
54882;BME280;40775;51.448;4.742;2023-01-01T08:16:00;101309.91;;;12.85;100.00
54882;BME280;40775;51.448;4.742;2023-01-01T08:18:27;101325.72;;;12.85;100.00
54882;BME280;40775;51.448;4.742;2023-01-01T08:20:54;101295.88;;;12.86;100.00
54882;BME280;40775;51.448;4.742;2023-01-01T08:23:23;101319.47;;;12.78;100.00
54882;BME280;40775;51.448;4.742;2023-01-01T08:25:50;101327.28;;;12.74;100.00
54882;BME280;40775;51.448;4.742;2023-01-01T08:28:17;101335.19;;;12.74;100.00
54882;BME280;40775;51.448;4.742;2023-01-01T08:30:44;101349.25;;;12.74;100.00
54882;BME280;40775;51.448;4.742;2023-01-01T08:33:11;101332.59;;;12.77;100.00
54882;BME280;40775;51.448;4.742;2023-01-01T08:35:41;101343.09;;;12.74;100.00
54882;BME280;40775;51.448;4.742;2023-01-01T08:38:11;101338.69;;;12.73;100.00
54882;BME280;40775;51.448;4.742;2023-01-01T08:40:38;101339.53;;;12.72;100.00
54882;BME280;40775;51.448;4.742;2023-01-01T08:43:06;101326.34;;;12.70;100.00
54882;BME280;40775;51.448;4.742;2023-01-01T08:45:33;101322.00;;;12.72;100.00
54882;BME280;40775;51.448;4.742;2023-01-01T08:48:00;101331.66;;;12.73;100.00
54882;BME280;40775;51.448;4.742;2023-01-01T08:50:27;101338.78;;;12.77;100.00
54882;BME280;40775;51.448;4.742;2023-01-01T08:52:54;101342.22;;;12.75;100.00
54882;BME280;40775;51.448;4.742;2023-01-01T08:55:23;101339.63;;;12.76;100.00
54882;BME280;40775;51.448;4.742;2023-01-01T08:57:50;101343.09;;;12.74;100.00
54882;BME280;40775;51.448;4.742;2023-01-01T09:00:18;101357.25;;;12.80;100.00
54882;BME280;40775;51.448;4.742;2023-01-01T09:02:45;101361.56;;;12.75;100.00
54882;BME280;40775;51.448;4.742;2023-01-01T09:05:12;101373.84;;;12.75;100.00
54882;BME280;40775;51.448;4.742;2023-01-01T09:07:39;101378.28;;;12.77;100.00
54882;BME280;40775;51.448;4.742;2023-01-01T09:10:07;101375.63;;;12.76;100.00
54882;BME280;40775;51.448;4.742;2023-01-01T09:12:34;101375.69;;;12.79;100.00
54882;BME280;40775;51.448;4.742;2023-01-01T09:15:01;101370.38;;;12.77;100.00
54882;BME280;40775;51.448;4.742;2023-01-01T09:17:29;101380.03;;;12.77;100.00
54882;BME280;40775;51.448;4.742;2023-01-01T09:19:56;101385.31;;;12.77;100.00
54882;BME280;40775;51.448;4.742;2023-01-01T09:22:23;101394.88;;;12.72;100.00
54882;BME280;40775;51.448;4.742;2023-01-01T09:24:50;101396.69;;;12.76;100.00
54882;BME280;40775;51.448;4.742;2023-01-01T09:27:17;101401.13;;;12.77;100.00
54882;BME280;40775;51.448;4.742;2023-01-01T09:29:44;101398.53;;;12.80;100.00
54882;BME280;40775;51.448;4.742;2023-01-01T09:32:11;101386.28;;;12.82;100.00
54882;BME280;40775;51.448;4.742;2023-01-01T09:34:38;101391.50;;;12.80;100.00
54882;BME280;40775;51.448;4.742;2023-01-01T09:37:05;101388.94;;;12.83;100.00
54882;BME280;40775;51.448;4.742;2023-01-01T09:39:32;101392.44;;;12.82;100.00
54882;BME280;40775;51.448;4.742;2023-01-01T09:47:41;101387.91;;;12.75;100.00
54882;BME280;40775;51.448;4.742;2023-01-01T09:50:21;101391.44;;;12.76;100.00
54882;BME280;40775;51.448;4.742;2023-01-01T09:52:57;101427.41;;;12.74;100.00
54882;BME280;40775;51.448;4.742;2023-01-01T09:55:51;101420.44;;;12.77;100.00
54882;BME280;40775;51.448;4.742;2023-01-01T09:58:37;101404.66;;;12.79;100.00
54882;BME280;40775;51.448;4.742;2023-01-01T10:01:46;101398.59;;;12.83;100.00
54882;BME280;40775;51.448;4.742;2023-01-01T10:10:37;101411.69;;;12.78;100.00
54882;BME280;40775;51.448;4.742;2023-01-01T10:13:37;101412.66;;;12.83;100.00
54882;BME280;40775;51.448;4.742;2023-01-01T10:16:38;101408.25;;;12.82;100.00
54882;BME280;40775;51.448;4.742;2023-01-01T10:19:49;101407.44;;;12.86;100.00
54882;BME280;40775;51.448;4.742;2023-01-01T10:22:36;101409.31;;;12.90;100.00
54882;BME280;40775;51.448;4.742;2023-01-01T10:25:27;101413.75;;;12.93;100.00
54882;BME280;40775;51.448;4.742;2023-01-01T10:28:11;101405.88;;;12.94;100.00
54882;BME280;40775;51.448;4.742;2023-01-01T10:30:40;101404.97;;;12.94;100.00
54882;BME280;40775;51.448;4.742;2023-01-01T10:33:13;101403.44;;;13.05;100.00
54882;BME280;40775;51.448;4.742;2023-01-01T10:35:45;101396.38;;;13.04;100.00
54882;BME280;40775;51.448;4.742;2023-01-01T10:38:24;101407.81;;;13.05;100.00
54882;BME280;40775;51.448;4.742;2023-01-01T10:40:58;101398.25;;;13.11;100.00
54882;BME280;40775;51.448;4.742;2023-01-01T10:43:28;101394.00;;;13.16;100.00
54882;BME280;40775;51.448;4.742;2023-01-01T10:45:55;101398.53;;;13.23;100.00
54882;BME280;40775;51.448;4.742;2023-01-01T10:48:27;101410.91;;;13.27;100.00
54882;BME280;40775;51.448;4.742;2023-01-01T10:50:58;101417.94;;;13.27;100.00
54882;BME280;40775;51.448;4.742;2023-01-01T10:53:49;101418.03;;;13.32;100.00
54882;BME280;40775;51.448;4.742;2023-01-01T10:56:22;101425.03;;;13.31;100.00
54882;BME280;40775;51.448;4.742;2023-01-01T10:58:51;101438.34;;;13.37;100.00
54882;BME280;40775;51.448;4.742;2023-01-01T11:01:31;101417.25;;;13.37;100.00
54882;BME280;40775;51.448;4.742;2023-01-01T11:04:19;101425.19;;;13.40;100.00
54882;BME280;40775;51.448;4.742;2023-01-01T11:06:47;101423.53;;;13.44;100.00
54882;BME280;40775;51.448;4.742;2023-01-01T11:09:28;101419.13;;;13.43;100.00
54882;BME280;40775;51.448;4.742;2023-01-01T11:12:05;101408.63;;;13.46;100.00
54882;BME280;40775;51.448;4.742;2023-01-01T11:14:52;101410.47;;;13.51;100.00
54882;BME280;40775;51.448;4.742;2023-01-01T11:17:26;101407.75;;;13.45;100.00
54882;BME280;40775;51.448;4.742;2023-01-01T11:19:57;101410.41;;;13.47;100.00
54882;BME280;40775;51.448;4.742;2023-01-01T11:22:46;101403.31;;;13.44;100.00
54882;BME280;40775;51.448;4.742;2023-01-01T11:25:23;101399.06;;;13.52;100.00
54882;BME280;40775;51.448;4.742;2023-01-01T11:31:04;101387.75;;;13.59;100.00
54882;BME280;40775;51.448;4.742;2023-01-01T11:33:51;101372.72;;;13.55;100.00
54882;BME280;40775;51.448;4.742;2023-01-01T11:36:31;101371.88;;;13.56;100.00
54882;BME280;40775;51.448;4.742;2023-01-01T11:39:24;101385.06;;;13.58;100.00
54882;BME280;40775;51.448;4.742;2023-01-01T11:41:55;101397.47;;;13.64;100.00
54882;BME280;40775;51.448;4.742;2023-01-01T11:44:37;101404.50;;;13.63;100.00
54882;BME280;40775;51.448;4.742;2023-01-01T11:47:07;101405.41;;;13.65;100.00
54882;BME280;40775;51.448;4.742;2023-01-01T11:49:46;101410.66;;;13.62;100.00
54882;BME280;40775;51.448;4.742;2023-01-01T11:52:44;101398.38;;;13.64;100.00
54882;BME280;40775;51.448;4.742;2023-01-01T12:00:29;101409.84;;;13.68;100.00
54882;BME280;40775;51.448;4.742;2023-01-01T12:08:47;101389.72;;;13.71;100.00
54882;BME280;40775;51.448;4.742;2023-01-01T12:14:24;101386.41;;;13.86;100.00
54882;BME280;40775;51.448;4.742;2023-01-01T12:17:08;101376.75;;;13.86;100.00
54882;BME280;40775;51.448;4.742;2023-01-01T12:19:47;101379.34;;;13.83;100.00
54882;BME280;40775;51.448;4.742;2023-01-01T12:22:19;101378.44;;;13.83;100.00
54882;BME280;40775;51.448;4.742;2023-01-01T12:24:47;101367.91;;;13.84;100.00
54882;BME280;40775;51.448;4.742;2023-01-01T12:27:54;101368.75;;;13.82;100.00
54882;BME280;40775;51.448;4.742;2023-01-01T12:43:06;101352.22;;;13.93;100.00
54882;BME280;40775;51.448;4.742;2023-01-01T12:46:23;101358.34;;;13.92;100.00
54882;BME280;40775;51.448;4.742;2023-01-01T12:49:04;101357.47;;;13.93;100.00
54882;BME280;40775;51.448;4.742;2023-01-01T12:59:51;101341.75;;;13.98;100.00
54882;BME280;40775;51.448;4.742;2023-01-01T13:02:32;101347.03;;;14.00;100.00
54882;BME280;40775;51.448;4.742;2023-01-01T13:05:22;101346.09;;;13.96;100.00
54882;BME280;40775;51.448;4.742;2023-01-01T13:07:55;101341.69;;;13.97;100.00
54882;BME280;40775;51.448;4.742;2023-01-01T13:10:54;101360.16;;;13.97;100.00
54882;BME280;40775;51.448;4.742;2023-01-01T13:13:22;101356.63;;;13.96;100.00
54882;BME280;40775;51.448;4.742;2023-01-01T13:15:54;101354.06;;;13.99;100.00
54882;BME280;40775;51.448;4.742;2023-01-01T13:18:32;101346.13;;;13.98;100.00
54882;BME280;40775;51.448;4.742;2023-01-01T13:21:20;101354.09;;;14.01;100.00
54882;BME280;40775;51.448;4.742;2023-01-01T13:23:49;101348.81;;;14.01;100.00
54882;BME280;40775;51.448;4.742;2023-01-01T13:40:28;101349.59;;;13.97;100.00
54882;BME280;40775;51.448;4.742;2023-01-01T13:45:42;101349.66;;;13.98;100.00
54882;BME280;40775;51.448;4.742;2023-01-01T13:49:10;101352.22;;;13.95;100.00
54882;BME280;40775;51.448;4.742;2023-01-01T13:52:27;101349.59;;;13.95;100.00
54882;BME280;40775;51.448;4.742;2023-01-01T14:01:15;101375.97;;;13.93;100.00
54882;BME280;40775;51.448;4.742;2023-01-01T14:03:50;101370.63;;;13.90;100.00
54882;BME280;40775;51.448;4.742;2023-01-01T14:06:38;101369.78;;;13.91;100.00
54882;BME280;40775;51.448;4.742;2023-01-01T14:09:15;101365.34;;;13.89;100.00
54882;BME280;40775;51.448;4.742;2023-01-01T14:11:45;101358.25;;;13.86;100.00
54882;BME280;40775;51.448;4.742;2023-01-01T14:14:30;101346.81;;;13.86;100.00
54882;BME280;40775;51.448;4.742;2023-01-01T14:17:05;101344.19;;;13.87;100.00
54882;BME280;40775;51.448;4.742;2023-01-01T14:19:33;101343.28;;;13.85;100.00
54882;BME280;40775;51.448;4.742;2023-01-01T14:22:08;101339.75;;;13.83;100.00
54882;BME280;40775;51.448;4.742;2023-01-01T14:24:44;101347.66;;;13.83;100.00
54882;BME280;40775;51.448;4.742;2023-01-01T14:27:19;101349.44;;;13.84;100.00
54882;BME280;40775;51.448;4.742;2023-01-01T14:29:48;101352.06;;;13.83;100.00
54882;BME280;40775;51.448;4.742;2023-01-01T14:32:24;101349.41;;;13.83;100.00
54882;BME280;40775;51.448;4.742;2023-01-01T14:34:59;101342.38;;;13.83;100.00
54882;BME280;40775;51.448;4.742;2023-01-01T14:37:28;101339.72;;;13.80;100.00
54882;BME280;40775;51.448;4.742;2023-01-01T14:40:27;101344.94;;;13.77;100.00
54882;BME280;40775;51.448;4.742;2023-01-01T14:43:08;101344.06;;;13.77;100.00
54882;BME280;40775;51.448;4.742;2023-01-01T14:45:36;101338.78;;;13.77;100.00
54882;BME280;40775;51.448;4.742;2023-01-01T14:48:18;101337.84;;;13.73;100.00
54882;BME280;40775;51.448;4.742;2023-01-01T14:50:50;101347.53;;;13.73;100.00
54882;BME280;40775;51.448;4.742;2023-01-01T14:53:22;101353.63;;;13.70;100.00
54882;BME280;40775;51.448;4.742;2023-01-01T14:55:54;101358.94;;;13.72;100.00
54882;BME280;40775;51.448;4.742;2023-01-01T14:58:24;101365.06;;;13.71;100.00
54882;BME280;40775;51.448;4.742;2023-01-01T15:00:52;101363.25;;;13.68;100.00
54882;BME280;40775;51.448;4.742;2023-01-01T15:03:21;101370.28;;;13.68;100.00
54882;BME280;40775;51.448;4.742;2023-01-01T15:06:01;101361.56;;;13.70;100.00
54882;BME280;40775;51.448;4.742;2023-01-01T15:08:28;101347.41;;;13.67;100.00